Terminal Aerodrome Forecast
Issued by NWS Green Bay, WI

Home | Current Version | Previous Version | Graphics & Text | Print | Product List | Glossary On
Versions: 1 2 3 4 5 6 7 8 9 10 11 12 13 14 15 16 17 18 19 20
000
FTUS43 KGRB 260520
TAFGRB
TAF
KGRB 260520Z 2606/2706 12008KT P6SM VCSH SCT035 OVC070
     FM261400 16009G16KT 4SM SHRA BKN020 OVC035
     FM261800 19011G19KT P6SM VCSH BKN015 OVC025
     FM262200 22010G17KT 5SM SHRA OVC025 PROB30 2622/2702 3SM TSRA
      BR OVC015CB
     FM270300 29007KT 5SM SHRA BR BKN008 OVC015=

USA.gov is the U.S. government's official web portal to all federal, state and local government web resources and services.